Flugplatz Hohenems (LOIH)

Hier findest Du alle Informationen zum Flugplatz Hohenems (LOIH).

Informationen für Piloten zum Flugplatz Hohenems

Hier findest Du alle relevanten Informationen, die Du als Pilot benötigst, um Hohenems anzufliegen.

Flugplatz: Hohenems ICAO-Code: LOIH
Frequenz Turm: 121,20 Mhz GAFOR Gebiet: -
Frequenz Ground: 121,20 Mhz Mogas: ja
Platzrunde: N 2200 ft Landegebühr: 7.5 €
Platzhöhe: - Sunrise: 05:13 Uhr UTC
Pisten: 05/23 - 630 m x 18 m, ASPH Sunset: 17:10 Uhr UTC

Mitglieder, die in Hohenems fliegen

Flugwetter am Flugplatz Hohenems

Die METAR Information stammen aus EDNY (34.77 km entfernt).

METAR Code:
2020/09/24 11:50
EDNY 241150Z VRB03KT CAVOK 21/12 Q1009

Flugschulen am Flugplatz Hohenems

Am Flugplatz Hohenems gibt es leider keine Flugschule.

Benachbarte Flugplätze und Flugschulen

Es gibt 6 weitere Flugplätze in einem Umkreis von 50 km um den Flugplatz Hohenems.

Jetzt anmelden

Passwort vergessen

Umfrage Archiv

Wären Rettungsgeräte keine Pflicht mehr, würdet Ihr Euer UL trotzdem mit einem ausstatten?

Ja
85.7 %
Nein
14.3 %
Stimmen: 322 | Diskussion
Anzeige: Roland Aircraft
Statistik Alle Mitglieder

Aktuell sind 40 Besucher online.

Anzeige: VFR Sprechfunk Simulator


Anzeige: Pocket FMS